createdAt,value
2017-08-22T00:00:31.806Z,-1.2
2017-08-22T00:01:30.998Z,-1.2
2017-08-22T00:02:31.012Z,-1.2
2017-08-22T00:03:29.468Z,-1.2
2017-08-22T00:04:29.046Z,-1.2
2017-08-22T00:05:28.004Z,-1.2
2017-08-22T00:06:27.575Z,-1.2
2017-08-22T00:06:57.956Z,-1.2
2017-08-22T00:07:28.344Z,-1.2
2017-08-22T00:07:58.738Z,-1.2
2017-08-22T00:08:29.241Z,-1.1
2017-08-22T00:09:25.429Z,-1.1
2017-08-22T00:10:24.620Z,-1.1
2017-08-22T00:12:22.569Z,-1.1
2017-08-22T00:13:22.263Z,-1.1
2017-08-22T00:14:21.464Z,-1.1
2017-08-22T00:15:20.658Z,-1.2
2017-08-22T00:16:19.612Z,-1.2
2017-08-22T00:17:19.188Z,-1.2
2017-08-22T00:18:18.375Z,-1.1
2017-08-22T00:19:17.463Z,-1.1
2017-08-22T00:20:17.039Z,-1.2
2017-08-22T00:21:16.118Z,-1.2
2017-08-22T00:22:15.299Z,-1.1
2017-08-22T00:23:14.492Z,-1
2017-08-22T00:24:13.445Z,-1
2017-08-22T00:25:13.147Z,-1
2017-08-22T00:26:12.335Z,-1.1
2017-08-22T00:27:11.523Z,-1
2017-08-22T00:28:10.721Z,-1
2017-08-22T00:29:09.708Z,-1
2017-08-22T00:30:09.406Z,-1.1
2017-08-22T00:31:08.603Z,-1.2
2017-08-22T00:32:07.680Z,-1.2
2017-08-22T00:33:06.876Z,-1.2
2017-08-22T00:34:06.451Z,-1.2
2017-08-22T00:35:05.667Z,-1.2
2017-08-22T00:36:04.754Z,-1.2
2017-08-22T00:37:03.820Z,-1.2
2017-08-22T00:38:03.403Z,-1.1
2017-08-22T00:39:02.479Z,-1.1
2017-08-22T00:40:01.435Z,-1.1
2017-08-22T00:41:00.892Z,-1.1
2017-08-22T00:42:00.479Z,-1.2
2017-08-22T00:42:59.564Z,-1.2
2017-08-22T00:43:58.416Z,-1.1
2017-08-22T00:44:57.762Z,-1.3
2017-08-22T00:45:57.225Z,-1.2
2017-08-22T00:46:56.181Z,-1.2
2017-08-22T00:47:55.891Z,-1.2
2017-08-22T00:48:55.087Z,-1.2
2017-08-22T00:49:54.286Z,-1.3
2017-08-22T00:51:52.873Z,-1.1
2017-08-22T00:52:52.066Z,-1.1
2017-08-22T00:53:51.150Z,-1.1
2017-08-22T00:54:50.100Z,-1.2
2017-08-22T00:55:49.792Z,-1
2017-08-22T00:56:48.974Z,-1.2
2017-08-22T00:57:48.180Z,-1.2
2017-08-22T00:58:47.243Z,-1.2
2017-08-22T00:59:46.464Z,-1.2
2017-08-22T01:00:45.669Z,-1.3
2017-08-22T01:01:44.860Z,-1.2
2017-08-22T01:02:15.249Z,-1.2
2017-08-22T01:05:41.781Z,-1.2
2017-08-22T01:06:41.362Z,-1.2
2017-08-22T01:07:40.456Z,-1.3
2017-08-22T01:08:39.534Z,-1.3
2017-08-22T01:09:38.622Z,-1.2
2017-08-22T01:10:38.193Z,-1.2
2017-08-22T01:11:37.380Z,-1.2
2017-08-22T01:12:36.338Z,-1.2
2017-08-22T01:13:35.680Z,-1.2
2017-08-22T01:14:34.758Z,-1.2
2017-08-22T01:15:34.448Z,-1.1
2017-08-22T01:16:33.650Z,-1.1
2017-08-22T01:17:32.482Z,-1.1
2017-08-22T01:18:31.838Z,-1.2
2017-08-22T01:19:31.400Z,-1.3
2017-08-22T01:20:30.022Z,-1.2
2017-08-22T01:21:29.615Z,-1.2
2017-08-22T01:22:28.689Z,-1.2
2017-08-22T01:23:28.263Z,-1.2
2017-08-22T01:24:27.466Z,-1.2
2017-08-22T01:25:26.660Z,-1
2017-08-22T01:26:25.852Z,-1.1
2017-08-22T01:27:24.930Z,-1.2
2017-08-22T01:28:24.384Z,-1.2
2017-08-22T01:29:23.455Z,-1.2
2017-08-22T01:30:22.647Z,-1.1
2017-08-22T01:31:21.738Z,-1.1
2017-08-22T01:31:52.247Z,-1.1
2017-08-22T01:32:22.624Z,-1.1
2017-08-22T01:32:53.008Z,-1.1
2017-08-22T01:33:23.393Z,-1.1
2017-08-22T01:34:19.446Z,-1.1
2017-08-22T01:35:18.909Z,-1.1
2017-08-22T01:36:17.991Z,-1.1
2017-08-22T01:37:17.067Z,-1.2
2017-08-22T01:38:16.768Z,-1.2
2017-08-22T01:39:15.840Z,-1.3
2017-08-22T01:40:14.911Z,-1.3
2017-08-22T01:41:13.862Z,-1.3
2017-08-22T01:42:13.313Z,-1.3
2017-08-22T01:43:12.888Z,-1.3
2017-08-22T01:44:12.063Z,-1.2
2017-08-22T01:45:11.292Z,-1.3
2017-08-22T01:46:10.369Z,-1.3
2017-08-22T01:47:09.444Z,-1.2
2017-08-22T01:48:09.148Z,-1.2
2017-08-22T01:50:07.131Z,-1.2
2017-08-22T01:51:06.706Z,-1.2
2017-08-22T01:52:05.803Z,-1.2
2017-08-22T01:53:04.997Z,-1.2
2017-08-22T01:55:03.471Z,-1.2
2017-08-22T01:56:02.553Z,-1.2
2017-08-22T01:57:01.633Z,-1.3
2017-08-22T01:58:01.317Z,-1.3
2017-08-22T01:58:59.921Z,-1.3
2017-08-22T01:59:59.373Z,-1.4
2017-08-22T02:00:58.960Z,-1.4
2017-08-22T02:01:58.149Z,-1.3
2017-08-22T02:02:57.223Z,-1.3
2017-08-22T02:03:56.286Z,-1.2
2017-08-22T02:04:55.860Z,-1.3
2017-08-22T02:05:55.062Z,-1.4
2017-08-22T02:06:54.263Z,-1.5
2017-08-22T02:07:53.449Z,-1.5
2017-08-22T02:08:52.636Z,-1.5
2017-08-22T02:09:51.774Z,-1.5
2017-08-22T02:10:50.956Z,-1.5
2017-08-22T02:11:50.144Z,-1.5
2017-08-22T02:12:49.723Z,-1.5
2017-08-22T02:13:48.798Z,-1.5
2017-08-22T02:14:47.874Z,-1.5
2017-08-22T02:15:47.466Z,-1.5
2017-08-22T02:16:46.538Z,-1.5
2017-08-22T02:17:45.732Z,-1.5
2017-08-22T02:18:44.922Z,-1.4
2017-08-22T02:19:44.012Z,-1.3
2017-08-22T02:20:43.103Z,-1.4
2017-08-22T02:21:42.800Z,-1.4
2017-08-22T02:22:41.994Z,-1.4
2017-08-22T02:23:41.068Z,-1.4
2017-08-22T02:25:39.530Z,-1.4
2017-08-22T02:26:38.488Z,-1.4
2017-08-22T02:27:37.681Z,-1.4
2017-08-22T02:28:37.263Z,-1.4
2017-08-22T02:29:36.450Z,-1.4
2017-08-22T02:30:35.645Z,-1.3
2017-08-22T02:31:34.721Z,-1.2
2017-08-22T02:32:33.839Z,-1.1
2017-08-22T02:33:32.904Z,-1.1
2017-08-22T02:34:32.359Z,-1.2
2017-08-22T02:35:31.436Z,-1.3
2017-08-22T02:37:29.899Z,-1.2
2017-08-22T02:38:29.477Z,-1.2
2017-08-22T02:39:28.566Z,-1.2
2017-08-22T02:40:27.762Z,-1.3
2017-08-22T02:41:26.851Z,-1.2
2017-08-22T02:42:25.922Z,-1.2
2017-08-22T02:43:25.624Z,-1.2
2017-08-22T02:44:24.591Z,-1.2
2017-08-22T02:45:23.664Z,-1.3
2017-08-22T02:46:23.396Z,-1.2
2017-08-22T02:47:22.082Z,-1.2
2017-08-22T02:48:21.801Z,-1.2
2017-08-22T02:49:20.636Z,-1.2
2017-08-22T02:50:19.832Z,-1.2
2017-08-22T02:51:18.676Z,-1.2
2017-08-22T02:52:18.253Z,-1.2
2017-08-22T02:53:17.462Z,-1.2
2017-08-22T02:54:16.673Z,-1.3
2017-08-22T02:55:15.883Z,-1.3
2017-08-22T02:56:15.080Z,-1.3
2017-08-22T02:57:14.161Z,-1.3
2017-08-22T02:58:13.502Z,-1.3
2017-08-22T02:59:12.962Z,-1.3
2017-08-22T03:00:12.035Z,-1.3
2017-08-22T03:01:11.508Z,-1.1
2017-08-22T03:02:10.578Z,-1.2
2017-08-22T03:03:09.633Z,-1.2
2017-08-22T03:04:08.818Z,-1.1
2017-08-22T03:05:08.402Z,-1.2
2017-08-22T03:06:07.369Z,-1.1
2017-08-22T03:07:06.547Z,-1.1
2017-08-22T03:08:05.734Z,-1
2017-08-22T03:09:04.813Z,-1
2017-08-22T03:10:04.390Z,-1.1
2017-08-22T03:11:03.607Z,-1.1
2017-08-22T03:12:02.573Z,-1.1
2017-08-22T03:13:01.764Z,-1.1
2017-08-22T03:14:01.352Z,-1.1
2017-08-22T03:15:00.188Z,-1.1
2017-08-22T03:15:59.764Z,-1
2017-08-22T03:16:58.839Z,-1.1
2017-08-22T03:17:58.038Z,-1.1
2017-08-22T03:18:57.245Z,-1
2017-08-22T03:19:27.633Z,-1
2017-08-22T03:20:55.507Z,-1.2
2017-08-22T03:21:54.579Z,-1.3
2017-08-22T03:23:53.245Z,-1.2
2017-08-22T03:24:52.318Z,-1.2
2017-08-22T03:25:52.071Z,-1.2
2017-08-22T03:26:50.766Z,-1.2
2017-08-22T03:27:49.974Z,-1.2
2017-08-22T03:28:49.176Z,-1.1
2017-08-22T03:29:48.657Z,-1.1
2017-08-22T03:30:47.897Z,-1.1
2017-08-22T03:31:46.861Z,-1.1
2017-08-22T03:32:46.046Z,-1.1
2017-08-22T03:33:45.253Z,-1.1
2017-08-22T03:34:44.476Z,-1.1
2017-08-22T03:35:43.670Z,-1.1
2017-08-22T03:36:42.858Z,-1
2017-08-22T03:37:42.035Z,-1.1
2017-08-22T03:38:41.499Z,-1.1
2017-08-22T03:39:40.349Z,-1.1
2017-08-22T03:40:39.797Z,-1.1
2017-08-22T03:41:38.882Z,-1.1
2017-08-22T03:42:38.442Z,-1.2
2017-08-22T03:43:37.519Z,-1.2
2017-08-22T03:44:36.592Z,-1.2
2017-08-22T03:45:35.551Z,-1.2
2017-08-22T03:46:35.239Z,-1.2
2017-08-22T03:47:34.421Z,-1.2
2017-08-22T03:48:33.614Z,-1.2
2017-08-22T03:49:32.691Z,-1.2
2017-08-22T03:50:31.894Z,-1.2
2017-08-22T03:51:31.082Z,-1.1
2017-08-22T03:52:30.145Z,-1.2
2017-08-22T03:53:29.783Z,-1.2
2017-08-22T03:54:28.874Z,-1.2
2017-08-22T03:55:27.963Z,-1.2
2017-08-22T03:56:27.052Z,-1.1
2017-08-22T03:57:26.131Z,-1.1
2017-08-22T03:58:25.599Z,-1
2017-08-22T03:59:24.795Z,-1
2017-08-22T04:00:23.992Z,-1.1
2017-08-22T04:00:54.497Z,-1.1
2017-08-22T04:02:22.380Z,-1.1
2017-08-22T04:03:21.569Z,-1.2
2017-08-22T04:04:20.533Z,-1.1
2017-08-22T04:05:20.122Z,-1.1
2017-08-22T04:06:19.202Z,-1.1
2017-08-22T04:07:18.679Z,-1.2
2017-08-22T04:08:17.764Z,-1.3
2017-08-22T04:09:16.966Z,-1.3
2017-08-22T04:10:16.156Z,-1.3
2017-08-22T04:11:15.357Z,-1.3
2017-08-22T04:11:45.632Z,-1.3
2017-08-22T04:12:16.135Z,-1.3
2017-08-22T04:12:46.299Z,-1.3
2017-08-22T04:14:13.050Z,-1.3
2017-08-22T04:15:12.240Z,-1.3
2017-08-22T04:16:11.429Z,-1.3
2017-08-22T04:17:10.489Z,-1.3
2017-08-22T04:18:09.454Z,-1.2
2017-08-22T04:19:09.144Z,-1.2
2017-08-22T04:20:08.331Z,-1.2
2017-08-22T04:21:07.515Z,-1.2
2017-08-22T04:22:06.466Z,-1.2
2017-08-22T04:23:05.668Z,-1.2
2017-08-22T04:24:04.877Z,-1.2
2017-08-22T04:25:03.956Z,-1.2
2017-08-22T04:26:03.665Z,-1.2
2017-08-22T04:27:02.754Z,-1.2
2017-08-22T04:28:01.842Z,-1.3
2017-08-22T04:29:01.033Z,-1.3
2017-08-22T04:30:00.232Z,-1.3
2017-08-22T04:30:59.427Z,-1.3
2017-08-22T04:31:58.490Z,-1.3
2017-08-22T04:32:57.689Z,-1.3
2017-08-22T04:33:56.751Z,-1.3
2017-08-22T04:35:54.967Z,-1.3
2017-08-22T04:36:54.675Z,-1.3
2017-08-22T04:37:53.768Z,-1.3
2017-08-22T04:38:24.038Z,-1.3
2017-08-22T04:38:54.539Z,-1.3
2017-08-22T04:39:52.235Z,-1.3
2017-08-22T04:40:51.503Z,-1.3
2017-08-22T04:41:50.599Z,-1.3
2017-08-22T04:42:49.789Z,-1.3
2017-08-22T04:43:48.871Z,-1.1
2017-08-22T04:44:48.453Z,-1.1
2017-08-22T04:45:47.643Z,-1.2
2017-08-22T04:46:46.849Z,-1.3
2017-08-22T04:47:45.804Z,-1.3
2017-08-22T04:48:44.998Z,-1.4
2017-08-22T04:49:44.561Z,-1.3
2017-08-22T04:50:43.746Z,-1.5
2017-08-22T04:52:41.823Z,-1.6
2017-08-22T04:53:40.899Z,-1.6
2017-08-22T04:54:40.474Z,-1.8
2017-08-22T04:55:39.445Z,-1.8
2017-08-22T04:56:38.641Z,-1.8
2017-08-22T04:57:37.840Z,-1.5
2017-08-22T04:58:36.785Z,-1.5
2017-08-22T04:59:36.479Z,-1.7
2017-08-22T05:00:35.675Z,-1.8
2017-08-22T05:01:34.874Z,-1.9
2017-08-22T05:02:33.959Z,-1.9
2017-08-22T05:03:33.156Z,-1.9
2017-08-22T05:04:32.339Z,-1.9
2017-08-22T05:05:31.528Z,-1.8
2017-08-22T05:06:30.258Z,-1.7
2017-08-22T05:07:29.843Z,-1.9
2017-08-22T05:08:29.038Z,-1.9
2017-08-22T05:09:28.231Z,-1.9
2017-08-22T05:10:27.425Z,-2
2017-08-22T05:11:26.495Z,-2.1
2017-08-22T05:12:26.200Z,-2
2017-08-22T05:13:25.155Z,-1.9
2017-08-22T05:14:24.230Z,-1.9
2017-08-22T05:15:23.822Z,-1.8
2017-08-22T05:16:23.015Z,-1.9
2017-08-22T05:17:22.205Z,-1.9
2017-08-22T05:18:21.286Z,-1.8
2017-08-22T05:19:20.353Z,-1.8
2017-08-22T05:21:18.723Z,-1.8
2017-08-22T05:22:17.912Z,-1.7
2017-08-22T05:24:16.508Z,-1.5
2017-08-22T05:25:15.703Z,-1.6
2017-08-22T05:26:14.901Z,-1.7
2017-08-22T05:27:13.982Z,-1.6
2017-08-22T05:28:13.179Z,-1.6
2017-08-22T05:29:12.391Z,-1.5
2017-08-22T05:30:11.989Z,-1.6
2017-08-22T05:30:42.498Z,-1.6
2017-08-22T05:32:10.374Z,-1.5
2017-08-22T05:33:09.559Z,-1.5
2017-08-22T05:34:08.749Z,-1.5
2017-08-22T05:36:06.480Z,-1.6
2017-08-22T05:37:06.185Z,-1.6
2017-08-22T05:38:05.366Z,-1.8
2017-08-22T05:39:04.569Z,-1.9
2017-08-22T05:40:03.546Z,-2
2017-08-22T05:41:02.770Z,-2.2
2017-08-22T05:42:01.733Z,-2.2
2017-08-22T05:44:00.819Z,-2.3
2017-08-22T05:45:58.881Z,-2.4
2017-08-22T05:46:58.074Z,-2.5
2017-08-22T05:47:57.158Z,-2.7
2017-08-22T05:48:56.851Z,-2.7
2017-08-22T05:49:56.040Z,-2.8
2017-08-22T05:50:55.242Z,-2.6
2017-08-22T05:51:54.330Z,-2.6
2017-08-22T05:52:53.400Z,-2.6
2017-08-22T05:53:52.594Z,-2.7
2017-08-22T05:54:51.791Z,-2.8
2017-08-22T05:55:50.875Z,-2.9
2017-08-22T05:56:49.949Z,-3
2017-08-22T05:57:49.519Z,-3.1
2017-08-22T05:58:48.589Z,-3.2
2017-08-22T05:59:47.775Z,-3.3
2017-08-22T06:00:47.000Z,-3.5
2017-08-22T06:01:46.078Z,-3.5
2017-08-22T06:02:45.782Z,-3.5
2017-08-22T06:03:44.961Z,-3.6
2017-08-22T06:04:43.799Z,-3.5
2017-08-22T06:05:42.887Z,-3.4
2017-08-22T06:06:42.570Z,-3.4
2017-08-22T06:07:41.658Z,-3.3
2017-08-22T06:08:40.734Z,-3.3
2017-08-22T06:09:39.930Z,-3.2
2017-08-22T06:10:39.021Z,-2.9
2017-08-22T06:11:38.214Z,-2.8
2017-08-22T06:12:37.924Z,-2.7
2017-08-22T06:13:37.000Z,-2.8
2017-08-22T06:14:36.081Z,-2.7
2017-08-22T06:15:35.161Z,-2.8
2017-08-22T06:16:34.358Z,-2.7
2017-08-22T06:17:33.553Z,-2.9
2017-08-22T06:18:32.758Z,-3.1
2017-08-22T06:19:31.949Z,-2.9
2017-08-22T06:20:31.143Z,-3
2017-08-22T06:21:30.339Z,-2.9
2017-08-22T06:22:30.029Z,-2.9
2017-08-22T06:23:29.217Z,-2.9
2017-08-22T06:25:27.434Z,-3
2017-08-22T06:26:26.615Z,-3.1
2017-08-22T06:27:25.578Z,-3
2017-08-22T06:28:25.148Z,-3
2017-08-22T06:29:24.096Z,-2.9
2017-08-22T06:30:23.286Z,-2.7
2017-08-22T06:32:21.862Z,-2.5
2017-08-22T06:33:21.061Z,-2.3
2017-08-22T06:34:20.258Z,-2.4
2017-08-22T06:35:19.478Z,-2.4
2017-08-22T06:36:18.437Z,-2.4
2017-08-22T06:37:17.900Z,-2.4
2017-08-22T06:38:17.354Z,-2.3
2017-08-22T06:39:16.552Z,-2.5
2017-08-22T06:40:15.621Z,-2.7
2017-08-22T06:41:14.715Z,-2.7
2017-08-22T06:42:13.912Z,-2.9
2017-08-22T06:43:13.606Z,-3.1
2017-08-22T06:44:12.673Z,-3.1
2017-08-22T06:45:11.873Z,-3
2017-08-22T06:46:11.083Z,-3.1
2017-08-22T06:47:10.153Z,-3.1
2017-08-22T06:48:09.341Z,-3
2017-08-22T06:49:08.438Z,-3.2
2017-08-22T06:50:08.030Z,-3.1
2017-08-22T06:51:07.229Z,-3.3
2017-08-22T06:52:06.188Z,-3.3
2017-08-22T06:53:05.256Z,-3.3
2017-08-22T06:54:04.829Z,-3.2
2017-08-22T06:55:03.777Z,-3.1
2017-08-22T06:56:03.475Z,-3.2
2017-08-22T06:56:33.858Z,-3.2
2017-08-22T06:57:04.136Z,-3.4
2017-08-22T06:57:34.644Z,-3.4
2017-08-22T06:59:01.018Z,-3.1
2017-08-22T07:00:00.219Z,-3.1
2017-08-22T07:00:59.411Z,-3
2017-08-22T07:01:58.601Z,-3
2017-08-22T07:02:57.686Z,-3
2017-08-22T07:03:56.872Z,-3.1
2017-08-22T07:04:55.953Z,-3.1
2017-08-22T07:05:55.540Z,-3.1
2017-08-22T07:06:54.739Z,-3.1
2017-08-22T07:07:25.007Z,-3.1
2017-08-22T07:07:55.414Z,-3.2
2017-08-22T07:08:53.101Z,-3.2
2017-08-22T07:09:52.175Z,-3
2017-08-22T07:10:51.757Z,-3
2017-08-22T07:11:50.827Z,-2.9
2017-08-22T07:12:49.783Z,-2.8
2017-08-22T07:13:49.365Z,-2.8
2017-08-22T07:15:47.969Z,-2.6
2017-08-22T07:17:45.808Z,-2.9
2017-08-22T07:19:44.901Z,-3
2017-08-22T07:20:43.972Z,-3
2017-08-22T07:21:42.924Z,-3.2
2017-08-22T07:22:42.624Z,-3
2017-08-22T07:23:41.816Z,-3
2017-08-22T07:24:40.999Z,-2.9
2017-08-22T07:25:39.942Z,-2.9
2017-08-22T07:26:39.527Z,-2.9
2017-08-22T07:27:38.710Z,-2.9
2017-08-22T07:29:37.599Z,-3.3
2017-08-22T07:30:36.164Z,-3.3
2017-08-22T07:31:35.244Z,-3.2
2017-08-22T07:32:34.987Z,-3.2
2017-08-22T07:34:33.557Z,-3.2
2017-08-22T07:35:32.751Z,-3.3
2017-08-22T07:36:31.711Z,-3.4
2017-08-22T07:37:30.896Z,-3.2
2017-08-22T07:38:30.082Z,-3.3
2017-08-22T07:39:29.276Z,-3.3
2017-08-22T07:40:28.967Z,-2.9
2017-08-22T07:41:28.167Z,-3
2017-08-22T07:42:27.356Z,-3
2017-08-22T07:43:26.442Z,-3.2
2017-08-22T07:44:25.635Z,-3.2
2017-08-22T07:45:24.704Z,-3.1
2017-08-22T07:46:24.271Z,-3.1
2017-08-22T07:46:54.781Z,-3.1
2017-08-22T07:47:24.936Z,-3
2017-08-22T07:47:55.940Z,-3
2017-08-22T07:49:21.686Z,-3.2
2017-08-22T07:50:21.392Z,-3.2
2017-08-22T07:51:20.587Z,-3.2
2017-08-22T07:52:19.779Z,-2.9
2017-08-22T07:53:18.877Z,-2.9
2017-08-22T07:54:17.947Z,-2.9
2017-08-22T07:55:18.095Z,-2.8
2017-08-22T07:56:16.794Z,-2.6
2017-08-22T07:57:15.863Z,-2.7
2017-08-22T07:58:14.835Z,-2.6
2017-08-22T07:59:14.408Z,-2.7
2017-08-22T08:00:13.486Z,-2.7
2017-08-22T08:01:13.195Z,-2.8
2017-08-22T08:02:12.399Z,-2.8
2017-08-22T08:03:11.466Z,-2.8
2017-08-22T08:04:10.419Z,-2.8
2017-08-22T08:05:09.888Z,-2.7
2017-08-22T08:08:07.847Z,-2.6
2017-08-22T08:09:06.924Z,-2.5
2017-08-22T08:10:06.000Z,-2.2
2017-08-22T08:11:05.468Z,-2.1
2017-08-22T08:12:04.309Z,-2.1
2017-08-22T08:13:03.890Z,-2.1
2017-08-22T08:14:03.237Z,-2
2017-08-22T08:15:02.433Z,-2
2017-08-22T08:16:01.626Z,-2.1
2017-08-22T08:17:00.718Z,-2
2017-08-22T08:18:00.412Z,-2.2
2017-08-22T08:18:59.376Z,-2.4
2017-08-22T08:19:58.576Z,-2.4
2017-08-22T08:20:58.287Z,-2.6
2017-08-22T08:21:57.353Z,-2.2
2017-08-22T08:22:56.317Z,-2
2017-08-22T08:23:55.909Z,-2.2
2017-08-22T08:24:55.105Z,-2.2
2017-08-22T08:25:54.191Z,-2.1
2017-08-22T08:26:53.768Z,-2.1
2017-08-22T08:27:52.954Z,-2.3
2017-08-22T08:28:51.688Z,-2.3
2017-08-22T08:29:51.263Z,-2.1
2017-08-22T08:30:50.722Z,-2
2017-08-22T08:31:49.683Z,-2
2017-08-22T08:32:49.382Z,-2
2017-08-22T08:33:48.599Z,-2
2017-08-22T08:35:47.206Z,-2.1
2017-08-22T08:36:46.041Z,-2
2017-08-22T08:37:45.615Z,-1.8
2017-08-22T08:38:44.814Z,-1.6
2017-08-22T08:39:43.894Z,-1.7
2017-08-22T08:40:43.600Z,-1.7
2017-08-22T08:41:42.676Z,-1.9
2017-08-22T08:42:41.868Z,-1.9
2017-08-22T08:43:41.074Z,-1.9
2017-08-22T08:44:40.646Z,-2.2
2017-08-22T08:45:39.833Z,-2.4
2017-08-22T08:46:38.912Z,-2.4
2017-08-22T08:47:38.524Z,-2.4
2017-08-22T08:48:37.615Z,-2.3
2017-08-22T08:49:36.707Z,-2.4
2017-08-22T08:50:36.271Z,-2.3
2017-08-22T08:51:35.345Z,-2.3
2017-08-22T08:52:34.544Z,-2.3
2017-08-22T08:53:34.235Z,-2.2
2017-08-22T08:55:32.702Z,-2.1
2017-08-22T08:56:31.882Z,-2.2
2017-08-22T08:57:30.834Z,-2.1
2017-08-22T08:58:30.545Z,-2
2017-08-22T08:59:29.511Z,-1.9
2017-08-22T09:00:29.243Z,-1.9
2017-08-22T09:01:28.312Z,-1.8
2017-08-22T09:02:27.262Z,-1.8
2017-08-22T09:03:26.849Z,-1.8
2017-08-22T09:04:25.803Z,-1.9
2017-08-22T09:05:25.417Z,-1.9
2017-08-22T09:06:24.368Z,-1.8
2017-08-22T09:08:23.454Z,-1.9
2017-08-22T09:09:22.543Z,-1.8
2017-08-22T09:10:21.618Z,-1.9
2017-08-22T09:11:21.314Z,-2
2017-08-22T09:12:20.262Z,-2.1
2017-08-22T09:13:19.966Z,-2.1
2017-08-22T09:14:19.167Z,-2.1
2017-08-22T09:15:18.356Z,-2.1
2017-08-22T09:16:17.445Z,-2.2
2017-08-22T09:17:16.900Z,-2.1
2017-08-22T09:18:16.103Z,-2.2
2017-08-22T09:19:15.689Z,-2.1
2017-08-22T09:20:14.767Z,-2.1
2017-08-22T09:21:13.893Z,-2.2
2017-08-22T09:22:13.592Z,-2.1
2017-08-22T09:23:12.533Z,-2.1
2017-08-22T09:24:12.120Z,-2.4
2017-08-22T09:25:11.322Z,-2.5
2017-08-22T09:25:41.739Z,-2.5
2017-08-22T09:26:12.148Z,-2.5
2017-08-22T09:26:42.646Z,-2.5
2017-08-22T09:27:13.154Z,-2.5
2017-08-22T09:28:09.217Z,-2.2
2017-08-22T09:29:08.416Z,-2
2017-08-22T09:30:07.621Z,-1.9
2017-08-22T09:31:07.327Z,-1.6
2017-08-22T09:32:06.166Z,-1.6
2017-08-22T09:33:05.732Z,-1.6
2017-08-22T09:34:04.922Z,-1.7
2017-08-22T09:35:04.121Z,-1.7
2017-08-22T09:36:03.579Z,-1.5
2017-08-22T09:37:02.770Z,-1.4
2017-08-22T09:38:01.964Z,-1.4
2017-08-22T09:39:01.547Z,-1.5
2017-08-22T09:40:00.526Z,-1.6
2017-08-22T09:41:00.107Z,-1.6
2017-08-22T09:41:59.180Z,-1.6
2017-08-22T09:42:58.537Z,-1.6
2017-08-22T09:44:57.116Z,-1.6
2017-08-22T09:45:56.568Z,-1.6
2017-08-22T09:46:55.629Z,-1.7
2017-08-22T09:47:55.212Z,-1.8
2017-08-22T09:48:54.406Z,-1.7
2017-08-22T09:49:53.883Z,-1.7
2017-08-22T09:50:53.067Z,-1.5
2017-08-22T09:51:52.032Z,-1.5
2017-08-22T09:52:51.613Z,-1.7
2017-08-22T09:53:50.698Z,-1.9
2017-08-22T09:54:50.158Z,-1.9
2017-08-22T09:55:49.744Z,-2
2017-08-22T09:56:48.653Z,-1.6
2017-08-22T09:57:48.239Z,-1.5
2017-08-22T09:58:47.429Z,-1.7
2017-08-22T09:59:47.128Z,-1.7
2017-08-22T10:00:46.084Z,-1.7
2017-08-22T10:01:45.159Z,-1.6
2017-08-22T10:02:45.028Z,-1.7
2017-08-22T10:03:44.216Z,-1.7
2017-08-22T10:04:43.402Z,-1.7
2017-08-22T10:05:42.598Z,-1.7
2017-08-22T10:06:42.295Z,-1.6
2017-08-22T10:07:41.488Z,-1.6
2017-08-22T10:08:40.682Z,-1.5
2017-08-22T10:09:39.885Z,-1.5
2017-08-22T10:10:39.074Z,-1.4
2017-08-22T10:12:38.032Z,-1.3
2017-08-22T10:13:37.229Z,-1.2
2017-08-22T10:14:36.314Z,-1
2017-08-22T10:16:35.431Z,-0.8
2017-08-22T10:17:34.501Z,-0.6
2017-08-22T10:18:33.685Z,-0.5
2017-08-22T10:19:32.772Z,-0.5
2017-08-22T10:20:32.353Z,-0.5
2017-08-22T10:21:31.707Z,-0.7
2017-08-22T10:22:30.771Z,-0.7
2017-08-22T10:23:30.362Z,-0.7
2017-08-22T10:24:29.328Z,-0.9
2017-08-22T10:25:28.900Z,-0.9
2017-08-22T10:27:27.370Z,-0.9
2017-08-22T10:28:27.072Z,-1
2017-08-22T10:29:26.272Z,-1
2017-08-22T10:30:25.480Z,-1
2017-08-22T10:31:24.677Z,-1
2017-08-22T10:32:24.264Z,-0.9
2017-08-22T10:33:23.450Z,-0.9
2017-08-22T10:34:22.403Z,-0.9
2017-08-22T10:35:22.115Z,-0.8
2017-08-22T10:36:21.309Z,-1
2017-08-22T10:37:20.506Z,-1
2017-08-22T10:38:20.072Z,-0.9
2017-08-22T10:39:19.292Z,-0.9
2017-08-22T10:40:18.484Z,-1.1
2017-08-22T10:41:18.073Z,-1
2017-08-22T10:42:17.269Z,-1
2017-08-22T10:43:16.496Z,-0.9
2017-08-22T10:44:15.558Z,-0.9
2017-08-22T10:45:15.133Z,-0.8
2017-08-22T10:46:14.319Z,-1
2017-08-22T10:47:13.786Z,-1
2017-08-22T10:48:13.377Z,-1
2017-08-22T10:49:12.449Z,-0.9
2017-08-22T10:50:11.513Z,-0.9
2017-08-22T10:51:11.085Z,-0.9
2017-08-22T10:52:10.295Z,-0.8
2017-08-22T10:53:09.997Z,-0.9
2017-08-22T10:54:09.215Z,-1.1
2017-08-22T10:55:08.186Z,-0.9
2017-08-22T10:56:07.643Z,-0.8
2017-08-22T10:57:06.489Z,-1
2017-08-22T10:58:06.085Z,-1
2017-08-22T10:59:05.587Z,-1.2
2017-08-22T11:00:04.428Z,-1.2
2017-08-22T11:01:03.900Z,-1.2
2017-08-22T11:02:03.600Z,-1.1
2017-08-22T11:03:02.809Z,-1.2
2017-08-22T11:04:02.391Z,-1.1
2017-08-22T11:05:01.346Z,-1
2017-08-22T11:06:00.921Z,-1
2017-08-22T11:07:00.104Z,-1
2017-08-22T11:07:59.571Z,-0.8
2017-08-22T11:08:58.652Z,-0.8
2017-08-22T11:09:58.244Z,-0.7
2017-08-22T11:10:57.454Z,-0.8
2017-08-22T11:11:56.525Z,-0.7
2017-08-22T11:12:56.111Z,-0.7
2017-08-22T11:13:55.182Z,-0.6
2017-08-22T11:14:54.877Z,-0.6
2017-08-22T11:15:54.076Z,-0.7
2017-08-22T11:16:53.281Z,-0.7
2017-08-22T11:17:52.991Z,-0.6
2017-08-22T11:18:52.190Z,-0.7
2017-08-22T11:19:51.388Z,-0.6
2017-08-22T11:20:50.576Z,-0.5
2017-08-22T11:21:50.268Z,-0.5
2017-08-22T11:22:49.457Z,-0.6
2017-08-22T11:23:48.643Z,-0.7
2017-08-22T11:24:48.333Z,-0.7
2017-08-22T11:25:47.403Z,-0.8
2017-08-22T11:27:45.772Z,-0.9
2017-08-22T11:28:45.341Z,-0.9
2017-08-22T11:29:44.436Z,-1
2017-08-22T11:31:43.282Z,-0.9
2017-08-22T11:32:42.985Z,-0.9
2017-08-22T11:33:42.056Z,-0.9
2017-08-22T11:34:41.265Z,-0.8
2017-08-22T11:35:40.966Z,-0.9
2017-08-22T11:36:40.045Z,-0.8
2017-08-22T11:37:38.877Z,-0.8
2017-08-22T11:38:38.840Z,-0.9
2017-08-22T11:40:37.419Z,-0.7
2017-08-22T11:41:36.622Z,-0.7
2017-08-22T11:43:35.084Z,-0.5
2017-08-22T11:44:34.653Z,-0.5
2017-08-22T11:45:34.351Z,-0.3
2017-08-22T11:46:33.182Z,-0.3
2017-08-22T11:47:32.880Z,-0.2
2017-08-22T11:48:31.717Z,-0.2
2017-08-22T11:49:31.413Z,-0.2
2017-08-22T11:50:30.491Z,-0.1
2017-08-22T11:51:30.197Z,0
2017-08-22T11:52:29.153Z,0
2017-08-22T11:53:28.860Z,0
2017-08-22T11:54:27.696Z,0
2017-08-22T11:55:27.391Z,0
2017-08-22T11:56:26.580Z,0
2017-08-22T11:57:26.261Z,0.1
2017-08-22T11:58:25.453Z,0.1
2017-08-22T11:59:24.651Z,0.1
2017-08-22T12:01:23.616Z,0.2
2017-08-22T12:02:22.794Z,0.3
2017-08-22T12:03:21.873Z,0.4
2017-08-22T12:04:21.574Z,0.3
2017-08-22T12:05:21.324Z,0.3
2017-08-22T12:06:20.008Z,0.2
2017-08-22T12:07:19.702Z,0.2
2017-08-22T12:08:18.891Z,0.3
2017-08-22T12:09:18.095Z,0.5
2017-08-22T12:10:17.664Z,0.5
2017-08-22T12:11:16.861Z,0.5
2017-08-22T12:12:16.316Z,0.3
2017-08-22T12:13:15.542Z,0.2
2017-08-22T12:14:14.744Z,0.1
2017-08-22T12:15:14.449Z,0
2017-08-22T12:16:13.409Z,0.1
2017-08-22T12:17:12.986Z,0.3
2017-08-22T12:18:12.180Z,0.6
2017-08-22T12:19:11.635Z,0.6
2017-08-22T12:20:10.588Z,0.6
2017-08-22T12:22:09.676Z,0.6
2017-08-22T12:24:08.255Z,0.7
2017-08-22T12:25:07.599Z,0.6
2017-08-22T12:27:06.672Z,0.7
2017-08-22T12:28:05.638Z,0.8
2017-08-22T12:29:05.334Z,0.8
2017-08-22T12:30:04.406Z,0.6
2017-08-22T12:31:03.606Z,0.8
2017-08-22T12:32:03.183Z,0.7
2017-08-22T12:33:02.375Z,0.7
2017-08-22T12:34:02.079Z,0.8
2017-08-22T12:35:01.292Z,0.8
2017-08-22T12:36:00.499Z,0.9
2017-08-22T12:37:00.076Z,1
2017-08-22T12:37:59.284Z,1
2017-08-22T12:38:58.480Z,1.1
2017-08-22T12:40:57.568Z,1.1
2017-08-22T12:41:56.647Z,1
2017-08-22T12:42:56.355Z,0.9
2017-08-22T12:43:26.630Z,0.9
2017-08-22T12:44:54.903Z,0.6
2017-08-22T12:45:54.485Z,0.4
2017-08-22T12:48:52.446Z,0.1
2017-08-22T12:50:51.018Z,0.1
2017-08-22T12:51:50.087Z,0
2017-08-22T12:52:49.556Z,-0.1
2017-08-22T12:53:49.264Z,0.1
2017-08-22T12:54:48.359Z,0.2
2017-08-22T12:55:48.053Z,0.3
2017-08-22T12:56:47.242Z,0.2
2017-08-22T12:58:45.596Z,0
2017-08-22T12:59:45.068Z,-0.1
2017-08-22T13:00:44.761Z,-0.1
2017-08-22T13:01:43.838Z,-0.1
2017-08-22T13:02:43.534Z,0.1
2017-08-22T13:03:42.741Z,0.4
2017-08-22T13:04:42.445Z,0.5
2017-08-22T13:05:41.656Z,0.7
2017-08-22T13:06:40.740Z,0.8
2017-08-22T13:07:40.322Z,0.8
2017-08-22T13:08:39.395Z,0.8
2017-08-22T13:09:38.724Z,0.7
2017-08-22T13:10:38.296Z,0.6
2017-08-22T13:11:38.002Z,0.6
2017-08-22T13:12:37.202Z,0.8
2017-08-22T13:13:36.276Z,0.8
2017-08-22T13:14:35.861Z,0.9
2017-08-22T13:15:35.056Z,0.9
2017-08-22T13:16:34.756Z,0.8
2017-08-22T13:17:34.388Z,0.8
2017-08-22T13:18:32.957Z,1
2017-08-22T13:19:32.677Z,1.1
2017-08-22T13:20:31.876Z,1
2017-08-22T13:21:31.573Z,1.1
2017-08-22T13:22:30.529Z,1.1
2017-08-22T13:23:30.231Z,1.1
2017-08-22T13:24:29.302Z,0.7
2017-08-22T13:25:28.876Z,0.6
2017-08-22T13:26:27.955Z,0.7
2017-08-22T13:27:27.526Z,0.5
2017-08-22T13:28:27.221Z,0.6
2017-08-22T13:29:26.305Z,0.7
2017-08-22T13:30:26.007Z,0.8
2017-08-22T13:31:24.971Z,0.8
2017-08-22T13:32:24.665Z,1.1
2017-08-22T13:33:23.859Z,1.2
2017-08-22T13:34:23.054Z,1.3
2017-08-22T13:35:22.766Z,1.4
2017-08-22T13:36:21.965Z,1.4
2017-08-22T13:36:52.333Z,1.4
2017-08-22T13:38:20.600Z,1.2
2017-08-22T13:39:19.943Z,1.2
2017-08-22T13:40:19.527Z,1.2
2017-08-22T13:41:18.590Z,1.2
2017-08-22T13:42:18.043Z,1.4
2017-08-22T13:43:17.388Z,1.5
2017-08-22T13:44:16.951Z,1.5
2017-08-22T13:45:16.519Z,1.7
2017-08-22T13:46:15.721Z,1.5
2017-08-22T13:48:14.810Z,1.3
2017-08-22T13:49:14.005Z,1.2
2017-08-22T13:50:13.222Z,1.4
2017-08-22T13:51:12.802Z,1.2
2017-08-22T13:52:11.884Z,1.3